Terminal Aerodrome Forecast
Issued by NWS

Home | Current Version | Previous Version | Graphics & Text | Print | Product List | Glossary On
Versions: 1 2 3 4 5 6 7 8 9 10 11 12 13
000
FTUS43 KLSX 301700
TAFSUS
TAF
KSUS 301720Z 3018/3118 17007KT P6SM -SHRA SCT060 OVC090
     FM302300 12005KT P6SM BKN100
     FM310400 34008KT P6SM BKN050
     FM311100 33015G22KT P6SM BKN030
     FM311500 33019G26KT P6SM SCT050=

USA.gov is the U.S. government's official web portal to all federal, state and local government web resources and services.